Time;durP1;ratioP1;P1;durP2;ratioP2;P2;SDS_P1;SDS_P2;PMS_P1;PMS_P2;Temp;Humidity;BMP_temperature;BMP_pressure;BME280_temperature;BME280_humidity;BME280_pressure;Samples;Min_cycle;Max_cycle;Signal;HPM_P1;HPM_P2
2023/04/10 00:01:12;;;;;;;4.00;3.70;;;5.60;99.90;;;;;;5113932;28;20213;-80
2023/04/10 00:03:37;;;;;;;3.90;3.60;;;5.60;99.90;;;;;;5113930;28;20730;-76
2023/04/10 00:06:03;;;;;;;3.97;3.57;;;5.60;99.90;;;;;;5114071;28;20181;-75
2023/04/10 00:08:29;;;;;;;3.93;3.63;;;5.60;99.90;;;;;;5113829;28;20185;-82
2023/04/10 00:10:56;;;;;;;3.80;3.50;;;5.60;99.90;;;;;;5095694;28;20537;-79
2023/04/10 00:13:22;;;;;;;3.90;3.60;;;5.50;99.90;;;;;;5115806;28;20204;-76
2023/04/10 00:15:49;;;;;;;4.27;3.87;;;5.60;99.90;;;;;;5113983;28;20303;-78
2023/04/10 00:18:15;;;;;;;3.77;3.47;;;5.60;99.90;;;;;;5113657;28;20315;-76
2023/04/10 00:20:41;;;;;;;4.47;4.07;;;5.70;99.90;;;;;;5113438;28;20198;-76
2023/04/10 00:23:07;;;;;;;4.10;3.77;;;5.60;99.90;;;;;;5113536;28;20258;-76
2023/04/10 00:25:33;;;;;;;4.80;3.80;;;5.60;99.90;;;;;;5113100;28;20296;-77
2023/04/10 00:27:59;;;;;;;3.33;3.10;;;5.70;99.90;;;;;;5113146;28;20278;-77
2023/04/10 00:30:24;;;;;;;3.83;3.53;;;5.70;99.90;;;;;;5113358;28;20172;-80
2023/04/10 00:32:50;;;;;;;5.00;4.50;;;5.70;99.90;;;;;;5113366;28;20174;-78
2023/04/10 00:35:16;;;;;;;4.23;3.83;;;5.70;99.90;;;;;;5113082;28;20173;-81
2023/04/10 00:37:42;;;;;;;4.67;3.90;;;5.60;99.90;;;;;;5112905;28;20609;-82
2023/04/10 00:40:08;;;;;;;4.27;3.97;;;5.70;99.90;;;;;;5113129;28;20299;-79
2023/04/10 00:42:33;;;;;;;4.00;3.70;;;5.70;99.90;;;;;;5113036;28;20504;-75
2023/04/10 00:44:59;;;;;;;4.17;3.87;;;5.70;99.90;;;;;;5094475;28;20278;-75
2023/04/10 00:47:26;;;;;;;4.47;3.77;;;5.80;99.90;;;;;;5112371;28;20174;-79
2023/04/10 00:49:52;;;;;;;4.40;4.00;;;5.70;99.90;;;;;;5113114;28;20593;-78
2023/04/10 00:52:19;;;;;;;4.60;4.20;;;5.70;99.90;;;;;;5113557;28;20216;-76
2023/04/10 00:54:45;;;;;;;4.23;3.87;;;5.80;99.90;;;;;;5113080;28;20175;-77
2023/04/10 00:57:10;;;;;;;3.70;3.40;;;5.70;99.90;;;;;;5112685;28;20181;-80
2023/04/10 00:59:37;;;;;;;5.20;4.40;;;5.70;99.90;;;;;;5112859;28;20181;-77
2023/04/10 01:02:02;;;;;;;3.77;3.47;;;5.70;99.90;;;;;;5112784;28;20219;-77
2023/04/10 01:04:30;;;;;;;4.30;3.90;;;5.70;99.90;;;;;;5112603;28;20207;-79
2023/04/10 01:07:08;;;;;;;3.90;3.60;;;5.70;99.90;;;;;;5112576;28;20270;-77
2023/04/10 01:09:47;;;;;;;4.43;4.03;;;5.60;99.90;;;;;;5112871;28;20509;-75
2023/04/10 01:12:37;;;;;;;4.40;4.00;;;5.50;99.90;;;;;;5112651;28;20161;-81
2023/04/10 01:15:08;;;;;;;4.63;3.70;;;5.50;99.90;;;;;;5112327;28;20326;-78
2023/04/10 01:17:48;;;;;;;5.43;3.87;;;5.50;99.90;;;;;;5115453;28;20201;-78
2023/04/10 01:20:20;;;;;;;4.70;4.10;;;5.60;99.90;;;;;;5113287;28;20224;-79
2023/04/10 01:22:58;;;;;;;4.43;3.90;;;5.60;99.90;;;;;;5113404;28;20161;-78
2023/04/10 01:25:38;;;;;;;6.30;4.63;;;5.50;99.90;;;;;;5112475;28;20180;-81
2023/04/10 01:28:10;;;;;;;4.70;4.30;;;5.40;99.90;;;;;;5112406;28;20245;-79
2023/04/10 01:30:37;;;;;;;4.33;3.93;;;5.40;99.90;;;;;;5094708;28;20170;-81
2023/04/10 01:33:04;;;;;;;4.33;3.90;;;5.50;99.90;;;;;;5113247;28;20520;-84
2023/04/10 01:35:32;;;;;;;4.43;3.70;;;5.50;99.90;;;;;;5094859;28;20205;-80
2023/04/10 01:38:00;;;;;;;6.30;4.03;;;5.40;99.90;;;;;;5118261;28;20222;-80
2023/04/10 01:40:28;;;;;;;5.10;4.60;;;5.30;99.90;;;;;;5116888;28;20296;-82
2023/04/10 01:42:56;;;;;;;4.30;3.90;;;5.20;99.90;;;;;;5113529;28;20165;-75
2023/04/10 01:45:28;;;;;;;5.77;4.20;;;5.20;99.90;;;;;;5113616;28;20174;-78
2023/04/10 01:47:55;;;;;;;4.30;3.90;;;5.00;99.90;;;;;;5112348;28;20241;-78
2023/04/10 01:50:26;;;;;;;4.80;4.30;;;5.10;99.90;;;;;;5094723;28;20178;-85
2023/04/10 01:52:53;;;;;;;4.40;4.00;;;5.00;99.90;;;;;;5112416;28;20253;-79
2023/04/10 01:55:20;;;;;;;4.53;4.13;;;5.00;99.90;;;;;;5112157;28;20212;-75
2023/04/10 01:57:47;;;;;;;4.30;3.93;;;5.10;99.90;;;;;;5112242;28;20168;-77
2023/04/10 02:00:15;;;;;;;4.60;4.20;;;5.10;99.90;;;;;;5097618;28;20296;-76
2023/04/10 02:02:41;;;;;;;5.07;4.50;;;5.00;99.90;;;;;;5116715;28;20257;-81
2023/04/10 02:05:09;;;;;;;4.43;4.10;;;4.90;99.90;;;;;;5116964;28;20170;-76
2023/04/10 02:08:01;;;;;;;5.37;4.50;;;4.80;99.90;;;;;;5117533;28;20166;-78
2023/04/10 02:10:56;;;;;;;5.67;4.50;;;4.80;99.90;;;;;;5098740;28;20632;-76
2023/04/10 02:13:26;;;;;;;5.00;4.50;;;4.90;99.90;;;;;;5097925;28;20168;-76
2023/04/10 02:15:55;;;;;;;4.40;4.10;;;4.80;99.90;;;;;;5115621;28;20368;-75
2023/04/10 02:18:23;;;;;;;4.37;3.97;;;4.80;99.90;;;;;;5097228;28;20206;-75
2023/04/10 02:20:49;;;;;;;4.73;4.13;;;4.80;99.90;;;;;;5115041;28;20209;-79
2023/04/10 02:23:16;;;;;;;5.00;4.13;;;4.70;99.90;;;;;;5115791;28;20177;-77
2023/04/10 02:25:42;;;;;;;5.53;4.53;;;4.70;99.90;;;;;;5115673;28;20641;-78
2023/04/10 02:28:08;;;;;;;4.50;4.10;;;4.60;99.90;;;;;;5115470;28;20201;-74
2023/04/10 02:30:34;;;;;;;5.33;4.50;;;4.70;99.90;;;;;;5114787;27;20180;-77
2023/04/10 02:33:00;;;;;;;4.13;3.73;;;4.60;99.90;;;;;;5115335;28;20663;-76
2023/04/10 02:35:28;;;;;;;4.93;3.97;;;4.60;99.90;;;;;;5115644;28;20182;-77
2023/04/10 02:37:53;;;;;;;4.53;4.17;;;4.60;99.90;;;;;;5113662;27;20264;-77
2023/04/10 02:40:19;;;;;;;4.40;4.00;;;4.70;99.90;;;;;;5115487;28;20298;-79
2023/04/10 02:42:45;;;;;;;4.33;4.00;;;4.60;99.90;;;;;;5115446;28;20178;-79
2023/04/10 02:45:11;;;;;;;4.23;3.83;;;4.60;99.90;;;;;;5097297;28;20264;-77
2023/04/10 02:47:36;;;;;;;6.57;4.47;;;4.70;99.90;;;;;;5096571;28;20184;-78
2023/04/10 02:50:02;;;;;;;4.30;3.90;;;4.70;99.90;;;;;;5115223;28;20177;-80
2023/04/10 02:52:28;;;;;;;4.30;3.90;;;4.70;99.90;;;;;;5114640;28;21923;-81
2023/04/10 02:54:54;;;;;;;3.73;3.40;;;4.60;99.90;;;;;;5114968;28;20647;-80
2023/04/10 02:57:20;;;;;;;4.10;3.70;;;4.60;99.90;;;;;;5117158;28;20301;-79
2023/04/10 02:59:50;;;;;;;4.07;3.77;;;4.50;99.90;;;;;;5115752;28;20550;-80
2023/04/10 03:02:15;;;;;;;4.20;3.80;;;4.50;99.90;;;;;;5115466;28;20203;-79
2023/04/10 03:04:41;;;;;;;4.90;4.33;;;4.40;99.90;;;;;;5116567;28;20663;-77
2023/04/10 03:07:07;;;;;;;3.87;3.37;;;4.40;99.90;;;;;;5114929;28;20179;-77
2023/04/10 03:09:33;;;;;;;4.07;3.50;;;4.40;99.90;;;;;;5115205;28;20222;-82
2023/04/10 03:12:00;;;;;;;4.10;3.70;;;4.30;99.90;;;;;;5114441;28;20182;-81
2023/04/10 03:14:26;;;;;;;3.93;3.53;;;4.40;99.90;;;;;;5114882;28;20362;-81
2023/04/10 03:16:52;;;;;;;4.60;4.20;;;4.30;99.90;;;;;;5130720;27;20274;-79
2023/04/10 03:19:18;;;;;;;4.27;3.83;;;4.30;99.90;;;;;;5115310;28;20177;-82
2023/04/10 03:21:45;;;;;;;4.33;3.40;;;4.30;99.90;;;;;;5115393;28;20237;-79
2023/04/10 03:24:11;;;;;;;3.97;3.57;;;4.10;99.90;;;;;;5097892;28;20214;-82
2023/04/10 03:26:37;;;;;;;3.23;3.00;;;4.10;99.90;;;;;;5120599;28;20176;-80
2023/04/10 03:29:03;;;;;;;4.37;3.70;;;4.10;99.90;;;;;;5122117;28;20173;-78
2023/04/10 03:31:29;;;;;;;3.90;3.60;;;4.00;99.90;;;;;;5115843;28;20495;-79
2023/04/10 03:33:55;;;;;;;4.17;3.77;;;4.00;99.90;;;;;;5115129;28;20196;-79
2023/04/10 03:36:21;;;;;;;3.23;3.03;;;4.00;99.90;;;;;;5096395;28;20221;-78
2023/04/10 03:38:46;;;;;;;3.30;3.10;;;4.00;99.90;;;;;;5096020;28;20173;-81
2023/04/10 03:41:12;;;;;;;4.37;3.90;;;3.90;99.90;;;;;;5114507;28;20781;-80
2023/04/10 03:43:38;;;;;;;4.20;3.40;;;4.00;99.90;;;;;;5114692;28;20180;-80
2023/04/10 03:46:04;;;;;;;3.67;3.37;;;4.10;99.90;;;;;;5114421;28;20176;-77
2023/04/10 03:48:31;;;;;;;3.87;3.47;;;4.10;99.90;;;;;;5095965;28;20275;-77
2023/04/10 03:50:57;;;;;;;3.87;3.57;;;4.00;99.90;;;;;;5096703;28;20177;-76
2023/04/10 03:53:23;;;;;;;3.87;3.57;;;4.00;99.90;;;;;;5114313;28;20627;-79
2023/04/10 03:55:51;;;;;;;3.63;3.33;;;4.00;99.90;;;;;;5114582;28;20212;-82
2023/04/10 03:58:17;;;;;;;5.87;3.87;;;3.90;99.90;;;;;;5114852;28;20176;-77
2023/04/10 04:00:43;;;;;;;4.20;3.80;;;3.90;99.90;;;;;;5117913;28;20230;-77
2023/04/10 04:03:09;;;;;;;4.60;3.93;;;3.80;99.90;;;;;;5114267;28;20172;-75
2023/04/10 04:05:34;;;;;;;4.40;4.00;;;3.80;99.90;;;;;;5113020;28;20188;-78
2023/04/10 04:08:00;;;;;;;4.27;3.87;;;3.80;99.90;;;;;;5113386;28;20540;-77
2023/04/10 04:10:26;;;;;;;5.70;4.10;;;3.80;99.90;;;;;;5113710;28;20179;-77
2023/04/10 04:12:51;;;;;;;5.17;4.40;;;3.70;99.90;;;;;;5113586;28;20183;-77
2023/04/10 04:15:17;;;;;;;3.97;3.67;;;3.60;99.90;;;;;;5113413;28;20228;-77
2023/04/10 04:17:45;;;;;;;4.87;4.37;;;3.70;99.90;;;;;;5113116;28;20528;-75
2023/04/10 04:20:11;;;;;;;5.63;4.33;;;3.60;99.90;;;;;;5113579;28;20259;-75
2023/04/10 04:22:36;;;;;;;4.77;4.20;;;3.60;99.90;;;;;;5113595;28;20511;-75
2023/04/10 04:25:06;;;;;;;4.87;4.30;;;3.60;99.90;;;;;;5113535;28;20249;-75
2023/04/10 04:27:32;;;;;;;4.87;4.03;;;3.60;99.90;;;;;;5113422;28;20165;-76
2023/04/10 04:29:58;;;;;;;5.27;4.80;;;3.60;99.90;;;;;;5113162;28;20621;-77
2023/04/10 04:32:23;;;;;;;4.80;4.40;;;3.60;99.90;;;;;;5113391;28;20185;-79
2023/04/10 04:34:49;;;;;;;4.73;4.17;;;3.50;99.90;;;;;;5114050;28;20263;-75
2023/04/10 04:37:15;;;;;;;4.33;3.93;;;3.50;99.90;;;;;;5113781;28;20168;-78
2023/04/10 04:39:40;;;;;;;5.47;4.43;;;3.40;99.90;;;;;;5112946;28;20180;-75
2023/04/10 04:42:06;;;;;;;4.87;4.30;;;3.50;99.90;;;;;;5113399;28;20283;-80
2023/04/10 04:44:32;;;;;;;5.10;4.70;;;3.50;99.90;;;;;;5113207;28;20222;-80
2023/04/10 04:46:58;;;;;;;4.57;4.13;;;3.60;99.90;;;;;;5114784;28;20187;-78
2023/04/10 04:49:23;;;;;;;4.40;4.00;;;3.50;99.90;;;;;;5115210;28;20211;-79
2023/04/10 04:51:49;;;;;;;4.53;4.13;;;3.60;99.90;;;;;;5113232;28;20276;-81
2023/04/10 04:54:15;;;;;;;7.17;4.57;;;3.60;99.90;;;;;;5112991;28;20181;-76
2023/04/10 04:56:40;;;;;;;4.97;4.23;;;3.50;99.90;;;;;;5094548;28;20213;-76
2023/04/10 04:59:06;;;;;;;5.27;4.27;;;3.60;99.90;;;;;;5113780;28;20219;-77
2023/04/10 05:01:32;;;;;;;5.27;4.70;;;3.60;99.90;;;;;;5112933;28;20213;-75
2023/04/10 05:03:58;;;;;;;4.33;4.03;;;3.60;99.90;;;;;;5112823;28;20186;-80
2023/04/10 05:06:23;;;;;;;4.13;3.70;;;3.60;99.90;;;;;;5112947;28;20636;-78
2023/04/10 05:08:49;;;;;;;5.43;4.77;;;3.60;99.90;;;;;;5112131;28;20182;-76
2023/04/10 05:11:15;;;;;;;4.80;4.30;;;3.60;99.90;;;;;;5103572;28;20277;-81
2023/04/10 05:13:41;;;;;;;5.33;4.70;;;3.60;99.90;;;;;;5096234;28;20208;-78
2023/04/10 05:16:07;;;;;;;5.20;4.70;;;3.60;99.90;;;;;;5096123;28;20177;-77
2023/04/10 05:18:33;;;;;;;4.77;4.30;;;3.70;99.90;;;;;;5094834;28;20169;-77
2023/04/10 05:20:59;;;;;;;5.37;4.30;;;3.80;99.90;;;;;;5092800;28;20219;-76
2023/04/10 05:23:25;;;;;;;4.67;4.27;;;3.80;99.90;;;;;;5092127;28;20177;-77
2023/04/10 05:25:51;;;;;;;4.93;4.43;;;3.90;99.90;;;;;;5074103;28;20174;-80
2023/04/10 05:28:17;;;;;;;4.40;4.00;;;3.90;99.90;;;;;;5091743;28;20169;-80
2023/04/10 05:30:43;;;;;;;4.60;4.20;;;3.90;99.90;;;;;;5091715;28;20260;-78
2023/04/10 05:33:08;;;;;;;4.17;3.80;;;3.90;99.90;;;;;;5092043;28;20231;-77
2023/04/10 05:35:34;;;;;;;5.27;4.53;;;4.00;99.90;;;;;;5095055;28;20234;-79
2023/04/10 05:38:00;;;;;;;5.83;4.50;;;4.00;99.90;;;;;;5113541;28;20184;-78
2023/04/10 05:40:26;;;;;;;5.43;4.53;;;4.10;99.90;;;;;;5114803;28;20254;-76
2023/04/10 05:42:52;;;;;;;5.47;4.37;;;4.20;99.90;;;;;;5077398;28;20180;-75
2023/04/10 05:45:18;;;;;;;5.43;4.93;;;4.30;99.90;;;;;;5112201;28;20173;-78
2023/04/10 05:47:44;;;;;;;5.17;4.43;;;4.30;99.90;;;;;;5093586;28;20173;-79
2023/04/10 05:50:09;;;;;;;5.03;4.47;;;4.50;99.90;;;;;;5112143;28;20193;-75
2023/04/10 05:52:35;;;;;;;5.17;4.63;;;4.50;99.90;;;;;;5111397;28;20168;-78
2023/04/10 05:55:01;;;;;;;5.23;4.70;;;4.50;99.90;;;;;;5112278;28;20177;-80
2023/04/10 05:57:28;;;;;;;6.17;5.17;;;4.60;99.90;;;;;;5112268;28;20182;-76
2023/04/10 05:59:54;;;;;;;4.73;4.30;;;4.80;99.90;;;;;;5111326;28;20180;-77
2023/04/10 06:02:20;;;;;;;5.23;4.53;;;4.90;99.90;;;;;;5112239;28;20215;-76
2023/04/10 06:04:46;;;;;;;5.70;4.83;;;5.00;99.90;;;;;;5112284;28;20179;-76
2023/04/10 06:07:12;;;;;;;5.33;4.80;;;5.10;99.90;;;;;;5092826;28;20185;-76
2023/04/10 06:09:38;;;;;;;6.67;4.83;;;5.10;99.90;;;;;;5091680;28;20185;-78
2023/04/10 06:12:03;;;;;;;4.10;3.80;;;5.20;99.90;;;;;;5112436;28;20177;-77
2023/04/10 06:14:29;;;;;;;6.10;4.97;;;5.30;99.90;;;;;;5111786;28;20231;-77
2023/04/10 06:16:55;;;;;;;5.53;4.87;;;5.30;99.90;;;;;;5111874;28;20656;-84
2023/04/10 06:19:21;;;;;;;4.67;4.23;;;5.30;99.90;;;;;;5111987;28;20188;-78
2023/04/10 06:21:46;;;;;;;6.07;5.20;;;5.30;99.90;;;;;;5110168;28;20207;-77
2023/04/10 06:24:13;;;;;;;5.27;4.60;;;5.50;99.90;;;;;;5110940;28;20188;-78
2023/04/10 06:26:39;;;;;;;5.97;4.90;;;5.60;99.90;;;;;;5111470;28;20170;-87
2023/04/10 06:29:04;;;;;;;5.33;4.83;;;5.70;99.90;;;;;;5111821;28;20533;-81
2023/04/10 06:31:32;;;;;;;5.43;4.93;;;5.80;99.90;;;;;;5111377;28;20280;-75
2023/04/10 06:33:59;;;;;;;5.37;4.50;;;6.00;99.90;;;;;;5111379;28;20665;-82
2023/04/10 06:36:25;;;;;;;5.70;5.20;;;6.00;99.90;;;;;;5111468;28;20178;-82
2023/04/10 06:38:51;;;;;;;4.67;4.17;;;6.10;99.90;;;;;;5109997;28;20179;-80
2023/04/10 06:41:17;;;;;;;5.33;4.43;;;6.20;99.90;;;;;;5109726;28;20237;-87
2023/04/10 06:43:44;;;;;;;4.93;4.43;;;6.30;99.90;;;;;;5111518;28;20166;-82
2023/04/10 06:46:10;;;;;;;5.33;4.77;;;6.30;99.90;;;;;;5114616;28;20191;-82
2023/04/10 06:48:36;;;;;;;6.70;5.03;;;6.40;99.90;;;;;;5115090;28;20173;-80
2023/04/10 06:51:02;;;;;;;5.63;4.83;;;6.50;99.90;;;;;;5115290;28;20188;-81
2023/04/10 06:53:28;;;;;;;6.03;5.03;;;6.70;99.90;;;;;;5115260;28;20170;-86
2023/04/10 06:55:55;;;;;;;5.80;4.87;;;6.60;99.90;;;;;;5115040;28;20179;-81
2023/04/10 06:58:21;;;;;;;5.33;4.40;;;6.70;99.90;;;;;;5115191;28;20167;-79
2023/04/10 07:00:47;;;;;;;5.40;4.20;;;6.80;99.90;;;;;;5098181;28;20263;-78
2023/04/10 07:03:12;;;;;;;6.73;4.80;;;6.90;99.90;;;;;;5102062;28;20175;-79
2023/04/10 07:05:38;;;;;;;5.97;4.73;;;7.00;99.90;;;;;;5111361;28;20238;-80
2023/04/10 07:08:04;;;;;;;4.73;4.33;;;7.00;99.90;;;;;;5097152;28;20170;-79
2023/04/10 07:10:30;;;;;;;4.90;4.40;;;7.10;99.90;;;;;;5079870;28;20195;-80
2023/04/10 07:12:57;;;;;;;5.67;4.87;;;7.10;99.90;;;;;;5097124;28;20167;-85
2023/04/10 07:15:23;;;;;;;4.80;4.27;;;7.20;99.90;;;;;;5097099;28;20261;-79
2023/04/10 07:17:49;;;;;;;7.07;4.30;;;7.20;99.90;;;;;;5096229;28;20646;-76
2023/04/10 07:20:15;;;;;;;4.50;4.10;;;7.30;99.90;;;;;;5114504;28;20231;-78
2023/04/10 07:22:40;;;;;;;4.93;4.37;;;7.50;99.90;;;;;;5114087;28;20175;-77
2023/04/10 07:25:07;;;;;;;5.37;4.67;;;7.60;99.90;;;;;;5114480;28;20173;-76
2023/04/10 07:27:33;;;;;;;5.80;4.97;;;7.60;99.90;;;;;;5097256;28;20630;-76
2023/04/10 07:29:58;;;;;;;5.43;4.27;;;7.80;99.90;;;;;;5117224;28;20231;-75
2023/04/10 07:32:24;;;;;;;5.00;4.50;;;7.80;99.90;;;;;;5115521;28;20180;-80
2023/04/10 07:34:50;;;;;;;5.97;4.70;;;7.90;99.90;;;;;;5114467;28;20211;-78
2023/04/10 07:37:16;;;;;;;4.77;4.13;;;7.90;99.90;;;;;;5113122;28;20514;-76
2023/04/10 07:39:43;;;;;;;4.87;4.47;;;8.00;99.90;;;;;;5105496;28;20235;-78
2023/04/10 07:42:10;;;;;;;5.60;4.40;;;8.20;99.90;;;;;;5109398;28;20222;-77
2023/04/10 07:44:36;;;;;;;4.33;3.93;;;8.30;99.90;;;;;;5114502;28;20600;-77
2023/04/10 07:47:02;;;;;;;5.30;4.53;;;8.40;99.90;;;;;;5113154;28;20279;-77
2023/04/10 07:49:28;;;;;;;5.17;3.87;;;8.40;99.70;;;;;;5115923;28;20171;-79
2023/04/10 07:51:54;;;;;;;4.33;3.97;;;8.50;99.30;;;;;;5112757;28;20188;-76
2023/04/10 07:54:20;;;;;;;4.87;4.30;;;8.60;98.80;;;;;;5113634;28;20184;-75
2023/04/10 07:56:45;;;;;;;5.23;4.73;;;8.60;99.10;;;;;;5112764;28;20269;-76
2023/04/10 07:59:11;;;;;;;4.53;4.10;;;8.80;98.70;;;;;;5113109;28;20199;-78
2023/04/10 08:01:37;;;;;;;4.40;4.00;;;8.80;98.70;;;;;;5114175;28;20207;-79
2023/04/10 08:04:03;;;;;;;4.47;4.07;;;8.90;98.60;;;;;;5112728;28;20215;-75
2023/04/10 08:06:30;;;;;;;4.57;3.90;;;9.00;98.20;;;;;;5112822;28;20184;-84
2023/04/10 08:08:56;;;;;;;4.27;3.93;;;9.10;97.70;;;;;;5113805;28;20172;-82
2023/04/10 08:11:25;;;;;;;4.30;3.90;;;9.10;97.50;;;;;;5114705;28;20178;-80
2023/04/10 08:14:01;;;;;;;4.47;4.07;;;9.20;97.60;;;;;;5115884;28;20703;-78
2023/04/10 08:16:29;;;;;;;5.00;4.27;;;9.30;97.10;;;;;;5114037;28;20187;-83
2023/04/10 08:18:56;;;;;;;4.37;3.97;;;9.30;96.80;;;;;;5113578;27;20322;-77
2023/04/10 08:21:24;;;;;;;5.30;4.10;;;9.40;96.60;;;;;;5112835;28;20297;-81
2023/04/10 08:23:52;;;;;;;5.40;4.10;;;9.50;95.80;;;;;;5113445;28;20177;-79
2023/04/10 08:26:18;;;;;;;4.93;4.53;;;9.60;95.10;;;;;;5095238;28;20170;-75
2023/04/10 08:28:48;;;;;;;4.00;3.60;;;9.70;95.20;;;;;;5113574;28;20544;-82
2023/04/10 08:31:14;;;;;;;4.17;3.77;;;9.70;93.90;;;;;;5114059;28;20290;-75
2023/04/10 08:33:40;;;;;;;3.07;2.87;;;9.80;92.60;;;;;;5113040;28;20248;-80
2023/04/10 08:36:08;;;;;;;3.17;2.97;;;9.90;91.10;;;;;;5095107;28;20176;-82
2023/04/10 08:38:34;;;;;;;3.40;3.20;;;10.00;90.30;;;;;;5113584;28;20168;-77
2023/04/10 08:41:00;;;;;;;3.63;3.20;;;10.10;90.60;;;;;;5112434;28;20668;-82
2023/04/10 08:43:26;;;;;;;3.53;3.23;;;10.00;90.80;;;;;;5108396;28;20186;-82
2023/04/10 08:45:52;;;;;;;3.47;3.27;;;10.00;90.90;;;;;;5113924;27;20229;-80
2023/04/10 08:48:23;;;;;;;6.33;3.70;;;10.00;90.50;;;;;;5108289;28;20242;-82
2023/04/10 08:50:49;;;;;;;6.67;3.70;;;10.10;90.60;;;;;;5113837;28;20174;-82
2023/04/10 08:53:17;;;;;;;3.63;3.33;;;10.30;90.10;;;;;;5115979;28;20182;-78
2023/04/10 08:55:44;;;;;;;3.50;3.20;;;10.40;90.00;;;;;;5115111;28;20229;-80
2023/04/10 08:58:12;;;;;;;3.70;3.50;;;10.40;88.90;;;;;;5113495;28;20169;-84
2023/04/10 09:00:38;;;;;;;3.67;3.37;;;10.30;88.60;;;;;;5111992;28;20269;-80
2023/04/10 09:03:10;;;;;;;4.13;3.77;;;10.30;90.00;;;;;;5096142;28;20219;-79
2023/04/10 09:05:36;;;;;;;4.53;4.13;;;10.40;90.00;;;;;;5092321;28;20167;-76
2023/04/10 09:08:04;;;;;;;3.77;3.50;;;10.40;90.20;;;;;;5091890;28;20194;-82
2023/04/10 09:10:30;;;;;;;3.93;3.63;;;10.50;90.00;;;;;;5091581;28;20177;-76
2023/04/10 09:12:55;;;;;;;3.47;3.20;;;10.50;90.20;;;;;;5092025;28;20679;-77
2023/04/10 09:15:21;;;;;;;3.90;3.60;;;10.70;89.70;;;;;;5092249;28;20214;-77
2023/04/10 09:17:55;;;;;;;4.30;3.70;;;10.80;89.60;;;;;;5074988;28;20186;-79
2023/04/10 09:20:22;;;;;;;3.53;3.33;;;10.80;89.90;;;;;;5094233;28;20207;-77
2023/04/10 09:22:48;;;;;;;3.83;3.53;;;10.90;89.60;;;;;;5092857;28;20259;-77
2023/04/10 09:25:39;;;;;;;4.10;3.70;;;11.00;88.30;;;;;;5091892;28;20229;-84
2023/04/10 09:28:07;;;;;;;3.77;3.47;;;11.10;88.40;;;;;;5074014;28;20673;-74
2023/04/10 09:30:41;;;;;;;4.30;3.90;;;11.30;88.50;;;;;;5091911;28;20221;-83
2023/04/10 09:33:22;;;;;;;3.70;3.40;;;11.30;88.80;;;;;;5098338;28;20311;-76
2023/04/10 09:35:48;;;;;;;3.97;3.57;;;11.30;88.30;;;;;;5112365;28;20185;-78
2023/04/10 09:38:16;;;;;;;3.93;3.63;;;11.30;88.50;;;;;;5112554;28;20174;-82
2023/04/10 09:40:42;;;;;;;3.90;3.60;;;11.40;88.40;;;;;;5112508;28;20205;-75
2023/04/10 09:43:16;;;;;;;4.17;3.87;;;11.50;89.10;;;;;;5114438;28;20173;-77
2023/04/10 09:45:54;;;;;;;3.83;3.53;;;11.60;88.50;;;;;;5079341;28;20195;-74
2023/04/10 09:48:20;;;;;;;4.70;4.33;;;11.70;90.00;;;;;;5113116;28;20165;-76
2023/04/10 09:50:46;;;;;;;4.00;3.70;;;11.80;90.50;;;;;;5115270;28;20175;-75
2023/04/10 09:53:18;;;;;;;6.10;4.30;;;11.90;91.00;;;;;;5114610;28;20182;-81
2023/04/10 09:55:45;;;;;;;3.50;3.27;;;12.00;90.50;;;;;;5111200;28;20195;-75
2023/04/10 09:58:12;;;;;;;4.30;4.00;;;12.10;89.60;;;;;;5112167;28;20215;-79
2023/04/10 10:00:39;;;;;;;4.07;3.77;;;12.30;87.50;;;;;;5111918;28;20206;-81
2023/04/10 10:03:08;;;;;;;4.27;3.93;;;12.20;86.50;;;;;;5111844;28;20631;-75
2023/04/10 10:05:39;;;;;;;4.60;4.20;;;12.40;87.20;;;;;;5112602;28;20277;-76
2023/04/10 10:08:08;;;;;;;4.23;3.90;;;12.40;87.50;;;;;;5112409;28;20173;-81
2023/04/10 10:10:36;;;;;;;4.57;4.23;;;12.50;88.10;;;;;;5111743;28;20281;-78
2023/04/10 10:13:03;;;;;;;5.00;4.60;;;12.70;89.20;;;;;;5111635;28;20258;-77
2023/04/10 10:15:48;;;;;;;4.57;4.23;;;12.90;89.80;;;;;;5111536;28;20256;-77
2023/04/10 10:18:36;;;;;;;4.30;3.90;;;13.20;88.40;;;;;;5111824;28;20495;-76
2023/04/10 10:21:04;;;;;;;6.43;5.90;;;13.30;84.50;;;;;;5114073;28;20208;-76
2023/04/10 10:23:32;;;;;;;5.70;5.20;;;13.40;83.60;;;;;;5115449;28;20181;-75
2023/04/10 10:25:59;;;;;;;5.17;4.67;;;13.60;85.60;;;;;;5114668;28;20859;-75
2023/04/10 10:28:30;;;;;;;4.93;4.53;;;13.80;86.60;;;;;;5115921;28;20204;-81
2023/04/10 10:30:56;;;;;;;5.07;4.57;;;14.00;87.80;;;;;;5115605;28;20166;-77
2023/04/10 10:33:23;;;;;;;4.70;4.30;;;14.30;88.80;;;;;;5115358;28;20205;-76
2023/04/10 10:35:50;;;;;;;5.07;4.57;;;14.30;84.40;;;;;;5115768;28;20174;-79
2023/04/10 10:38:19;;;;;;;4.27;3.87;;;14.20;84.90;;;;;;5116382;27;20174;-76
2023/04/10 10:40:51;;;;;;;5.53;4.07;;;14.10;83.90;;;;;;5118157;28;20767;-77
2023/04/10 10:43:43;;;;;;;5.03;4.63;;;14.20;84.00;;;;;;5121157;28;20170;-74
2023/04/10 10:46:20;;;;;;;4.97;4.47;;;14.10;83.40;;;;;;5116919;28;20155;-76
2023/04/10 10:48:55;;;;;;;4.60;4.20;;;14.00;83.10;;;;;;5116016;28;20248;-76
2023/04/10 10:51:21;;;;;;;5.03;4.53;;;14.00;83.90;;;;;;5115322;28;20190;-75
2023/04/10 10:53:47;;;;;;;4.63;4.07;;;14.10;84.40;;;;;;5096897;28;20206;-76
2023/04/10 10:56:18;;;;;;;4.27;3.97;;;14.10;84.50;;;;;;5115009;28;20701;-78
2023/04/10 10:58:49;;;;;;;5.77;4.13;;;14.20;83.70;;;;;;5115307;28;20653;-80
2023/04/10 11:01:15;;;;;;;4.33;3.93;;;14.30;83.60;;;;;;5114939;28;20197;-76
2023/04/10 11:03:43;;;;;;;4.23;3.90;;;14.20;81.50;;;;;;5115203;28;20522;-74
2023/04/10 11:06:18;;;;;;;4.60;4.20;;;14.00;81.60;;;;;;5115445;28;20257;-76
2023/04/10 11:08:46;;;;;;;4.50;4.20;;;14.00;82.80;;;;;;5095622;28;20174;-78
2023/04/10 11:11:23;;;;;;;4.30;4.00;;;13.90;83.90;;;;;;5077390;28;20650;-77
2023/04/10 11:13:52;;;;;;;5.23;4.80;;;13.80;83.50;;;;;;5097191;28;20158;-74
2023/04/10 11:16:19;;;;;;;4.70;4.30;;;13.70;84.20;;;;;;5114562;28;20186;-78
2023/04/10 11:18:45;;;;;;;5.13;4.63;;;13.60;86.30;;;;;;5115024;28;20178;-78
2023/04/10 11:21:11;;;;;;;8.00;7.07;;;13.70;86.80;;;;;;5114361;28;20706;-76
2023/04/10 11:23:49;;;;;;;7.50;6.10;;;13.80;86.10;;;;;;5114388;28;20174;-76
2023/04/10 11:26:40;;;;;;;8.23;6.63;;;14.00;86.00;;;;;;5115659;28;20177;-75
2023/04/10 11:29:11;;;;;;;6.00;5.40;;;14.10;86.90;;;;;;5114625;28;20181;-79
2023/04/10 11:31:37;;;;;;;5.60;5.00;;;14.30;85.90;;;;;;5108407;28;20269;-80
2023/04/10 11:34:09;;;;;;;5.10;4.60;;;14.50;85.70;;;;;;5114380;28;20178;-80
2023/04/10 11:36:41;;;;;;;4.50;4.20;;;14.60;84.30;;;;;;5114098;28;20193;-79
2023/04/10 11:39:18;;;;;;;5.03;4.53;;;14.80;82.90;;;;;;5113669;28;20185;-78
2023/04/10 11:41:47;;;;;;;4.60;4.30;;;14.80;81.50;;;;;;5095546;28;20212;-82
2023/04/10 11:44:19;;;;;;;4.83;4.43;;;14.90;79.30;;;;;;5114849;28;20175;-78
2023/04/10 11:46:46;;;;;;;4.97;4.57;;;14.80;79.10;;;;;;5114037;28;20168;-78
2023/04/10 11:49:18;;;;;;;4.50;4.10;;;14.80;80.80;;;;;;5114833;28;20226;-79
2023/04/10 11:51:46;;;;;;;4.83;4.37;;;14.90;81.40;;;;;;5114671;28;20173;-78
2023/04/10 11:54:32;;;;;;;4.07;3.73;;;14.80;81.50;;;;;;5114496;28;20171;-77
2023/04/10 11:57:04;;;;;;;4.80;4.40;;;14.80;81.90;;;;;;5113796;28;20172;-74
2023/04/10 11:59:33;;;;;;;5.03;4.63;;;14.80;82.90;;;;;;5095175;28;20192;-77
2023/04/10 12:02:17;;;;;;;4.90;4.50;;;14.90;83.40;;;;;;5113618;28;20255;-78
2023/04/10 12:04:43;;;;;;;4.83;4.43;;;14.80;82.50;;;;;;5113524;28;20182;-76
2023/04/10 12:07:09;;;;;;;8.43;4.57;;;14.40;84.30;;;;;;5113174;28;20634;-77
2023/04/10 12:09:36;;;;;;;5.00;4.60;;;14.30;85.30;;;;;;5095034;28;20664;-76
2023/04/10 12:12:06;;;;;;;4.97;4.57;;;14.20;85.60;;;;;;5113345;28;20174;-78
2023/04/10 12:14:39;;;;;;;5.40;4.90;;;14.10;84.70;;;;;;5113184;28;20217;-76
2023/04/10 12:17:09;;;;;;;5.97;5.47;;;14.00;83.30;;;;;;5113090;28;20677;-75
2023/04/10 12:19:37;;;;;;;5.27;4.77;;;14.10;82.70;;;;;;5113358;28;20232;-75
2023/04/10 12:22:03;;;;;;;5.13;4.73;;;14.30;82.50;;;;;;5113185;28;20293;-77
2023/04/10 12:24:46;;;;;;;5.40;5.00;;;14.60;82.70;;;;;;5113430;28;20256;-77
2023/04/10 12:27:25;;;;;;;6.30;4.97;;;14.70;83.70;;;;;;5113169;28;20215;-77
2023/04/10 12:29:56;;;;;;;5.33;4.80;;;14.70;82.00;;;;;;5114908;28;20165;-78
2023/04/10 12:32:24;;;;;;;5.13;4.70;;;14.70;82.10;;;;;;5118762;28;20195;-75
2023/04/10 12:34:57;;;;;;;4.97;4.57;;;14.70;81.10;;;;;;5117706;28;20700;-82
2023/04/10 12:37:24;;;;;;;5.67;5.07;;;14.90;82.20;;;;;;5113945;28;20168;-76
2023/04/10 12:39:50;;;;;;;6.60;5.63;;;15.10;82.30;;;;;;5113378;28;20216;-75
2023/04/10 12:42:21;;;;;;;5.03;4.63;;;15.30;82.20;;;;;;5113061;28;20266;-78
2023/04/10 12:44:58;;;;;;;5.03;4.63;;;15.20;82.10;;;;;;5112046;28;20559;-79
2023/04/10 12:47:25;;;;;;;5.20;4.70;;;15.20;82.30;;;;;;5114956;28;20652;-79
2023/04/10 12:50:11;;;;;;;5.27;4.40;;;15.30;81.20;;;;;;5112924;28;20166;-79
2023/04/10 12:52:40;;;;;;;4.63;4.23;;;15.20;81.50;;;;;;5112947;28;20176;-78
2023/04/10 12:55:18;;;;;;;4.47;4.17;;;15.00;81.50;;;;;;5094659;28;20178;-81
2023/04/10 12:57:46;;;;;;;5.10;4.67;;;14.90;82.20;;;;;;5112375;28;20173;-77